createdAt,value
2017-08-28T00:01:51.262Z,91.00
2017-08-28T00:04:18.898Z,91.10
2017-08-28T00:06:46.461Z,91.50
2017-08-28T00:09:14.052Z,91.80
2017-08-28T00:11:41.654Z,91.60
2017-08-28T00:14:09.413Z,91.70
2017-08-28T00:16:37.037Z,91.50
2017-08-28T00:19:04.607Z,91.30
2017-08-28T00:21:32.207Z,91.20
2017-08-28T00:23:59.779Z,91.20
2017-08-28T00:26:27.730Z,91.10
2017-08-28T00:28:55.307Z,91.20
2017-08-28T00:31:22.878Z,91.10
2017-08-28T00:33:50.464Z,90.80
2017-08-28T00:36:18.890Z,90.80
2017-08-28T00:38:46.862Z,91.20
2017-08-28T00:41:14.451Z,91.70
2017-08-28T00:43:42.072Z,91.80
2017-08-28T00:46:09.707Z,91.70
2017-08-28T00:48:37.313Z,91.60
2017-08-28T00:51:04.895Z,91.50
2017-08-28T00:53:32.732Z,91.50
2017-08-28T00:56:00.315Z,91.50
2017-08-28T00:58:27.914Z,91.80
2017-08-28T01:00:55.543Z,91.70
2017-08-28T01:03:23.494Z,91.50
2017-08-28T01:05:51.503Z,91.40
2017-08-28T01:08:19.871Z,91.30
2017-08-28T01:10:47.630Z,91.30
2017-08-28T01:13:15.451Z,91.40
2017-08-28T01:15:43.230Z,91.60
2017-08-28T01:18:11.065Z,91.60
2017-08-28T01:20:38.816Z,91.80
2017-08-28T01:23:06.712Z,92.10
2017-08-28T01:25:34.534Z,91.90
2017-08-28T01:28:02.102Z,91.60
2017-08-28T01:30:29.806Z,91.30
2017-08-28T01:32:57.754Z,91.30
2017-08-28T01:35:25.329Z,91.40
2017-08-28T01:37:52.926Z,91.30
2017-08-28T01:40:20.509Z,91.30
2017-08-28T01:42:48.083Z,91.20
2017-08-28T01:45:15.728Z,91.30
2017-08-28T01:47:43.302Z,91.30
2017-08-28T01:50:10.934Z,91.30
2017-08-28T01:52:38.568Z,91.30
2017-08-28T01:55:06.142Z,91.40
2017-08-28T01:57:33.708Z,91.50
2017-08-28T02:00:01.307Z,91.30
2017-08-28T02:02:28.871Z,91.30
2017-08-28T02:04:56.435Z,91.50
2017-08-28T02:07:24.050Z,91.60
2017-08-28T02:09:51.620Z,91.50
2017-08-28T02:12:19.185Z,91.60
2017-08-28T02:14:46.826Z,91.70
2017-08-28T02:17:14.403Z,91.90
2017-08-28T02:19:41.995Z,91.70
2017-08-28T02:22:09.610Z,91.60
2017-08-28T02:24:37.172Z,91.80
2017-08-28T02:27:04.805Z,91.70
2017-08-28T02:29:32.643Z,91.90
2017-08-28T02:32:00.228Z,92.10
2017-08-28T02:34:27.797Z,92.10
2017-08-28T02:36:55.398Z,92.10
2017-08-28T02:39:22.972Z,92.10
2017-08-28T02:41:50.538Z,92.10
2017-08-28T02:44:18.161Z,92.10
2017-08-28T02:46:45.722Z,92.10
2017-08-28T02:49:13.284Z,92.10
2017-08-28T02:51:40.910Z,92.10
2017-08-28T02:54:08.482Z,91.90
2017-08-28T02:56:36.052Z,92.00
2017-08-28T02:59:03.684Z,91.90
2017-08-28T03:01:31.254Z,92.00
2017-08-28T03:03:58.814Z,92.00
2017-08-28T03:06:26.411Z,92.00
2017-08-28T03:08:53.978Z,92.10
2017-08-28T03:11:21.550Z,92.00
2017-08-28T03:13:49.150Z,91.90
2017-08-28T03:16:16.714Z,91.80
2017-08-28T03:18:44.275Z,91.80
2017-08-28T03:21:11.900Z,91.90
2017-08-28T03:23:39.458Z,91.90
2017-08-28T03:26:07.018Z,91.80
2017-08-28T03:28:34.991Z,91.70
2017-08-28T03:31:02.572Z,91.70
2017-08-28T03:33:30.137Z,92.10
2017-08-28T03:35:57.738Z,91.80
2017-08-28T03:38:25.333Z,91.60
2017-08-28T03:40:52.919Z,91.20
2017-08-28T03:43:20.755Z,91.00
2017-08-28T03:45:48.340Z,91.30
2017-08-28T03:48:15.929Z,91.70
2017-08-28T03:50:43.554Z,92.00
2017-08-28T03:53:11.135Z,92.30
2017-08-28T03:55:38.720Z,92.60
2017-08-28T03:58:06.345Z,92.30
2017-08-28T04:00:33.933Z,92.00
2017-08-28T04:03:01.583Z,92.00
2017-08-28T04:05:29.216Z,92.00
2017-08-28T04:07:56.798Z,92.00
2017-08-28T04:10:24.382Z,91.90
2017-08-28T04:12:51.986Z,91.90
2017-08-28T04:15:19.574Z,91.90
2017-08-28T04:17:47.135Z,92.10
2017-08-28T04:20:14.742Z,92.00
2017-08-28T04:22:42.314Z,92.10
2017-08-28T04:25:09.912Z,92.00
2017-08-28T04:27:37.545Z,92.10
2017-08-28T04:30:05.422Z,91.70
2017-08-28T04:32:32.986Z,91.90
2017-08-28T04:35:00.611Z,92.80
2017-08-28T04:37:28.201Z,93.10
2017-08-28T04:39:55.907Z,92.80
2017-08-28T04:42:23.506Z,92.60
2017-08-28T04:44:51.080Z,93.00
2017-08-28T04:47:18.662Z,93.10
2017-08-28T04:49:46.263Z,92.90
2017-08-28T04:52:13.842Z,92.70
2017-08-28T04:54:41.415Z,92.70
2017-08-28T04:57:09.057Z,93.10
2017-08-28T04:59:36.676Z,92.70
2017-08-28T05:02:04.239Z,92.70
2017-08-28T05:04:31.839Z,92.60
2017-08-28T05:06:59.409Z,92.50
2017-08-28T05:09:27.734Z,92.10
2017-08-28T05:11:55.355Z,92.10
2017-08-28T05:14:22.934Z,92.00
2017-08-28T05:16:50.503Z,91.90
2017-08-28T05:19:18.101Z,92.10
2017-08-28T05:21:45.662Z,92.00
2017-08-28T05:24:13.259Z,92.00
2017-08-28T05:26:40.851Z,92.10
2017-08-28T05:29:08.418Z,92.10
2017-08-28T05:31:36.099Z,91.80
2017-08-28T05:34:03.703Z,91.60
2017-08-28T05:36:31.263Z,91.80
2017-08-28T05:38:58.821Z,91.50
2017-08-28T05:41:26.414Z,91.40
2017-08-28T05:43:53.981Z,91.10
2017-08-28T05:46:21.550Z,90.90
2017-08-28T05:48:49.160Z,91.30
2017-08-28T05:51:16.746Z,91.10
2017-08-28T05:53:44.315Z,91.40
2017-08-28T05:56:11.930Z,91.30
2017-08-28T05:58:39.498Z,90.90
2017-08-28T06:01:07.088Z,90.40
2017-08-28T06:03:34.686Z,90.20
2017-08-28T06:06:02.252Z,90.00
2017-08-28T06:08:29.895Z,89.50
2017-08-28T06:10:57.508Z,89.30
2017-08-28T06:13:25.070Z,88.40
2017-08-28T06:15:52.631Z,88.60
2017-08-28T06:18:20.287Z,89.90
2017-08-28T06:20:47.852Z,89.00
2017-08-28T06:23:15.430Z,89.60
2017-08-28T06:25:43.034Z,88.60
2017-08-28T06:28:10.615Z,87.30
2017-08-28T06:30:38.196Z,86.40
2017-08-28T06:33:06.110Z,85.80
2017-08-28T06:35:33.746Z,85.70
2017-08-28T06:38:01.330Z,85.10
2017-08-28T06:40:28.939Z,84.60
2017-08-28T06:42:56.521Z,84.50
2017-08-28T06:45:24.094Z,84.80
2017-08-28T06:47:51.719Z,85.70
2017-08-28T06:50:19.294Z,86.80
2017-08-28T06:52:46.869Z,88.40
2017-08-28T06:55:14.486Z,88.60
2017-08-28T06:57:42.087Z,88.60
2017-08-28T07:00:09.655Z,89.50
2017-08-28T07:02:37.538Z,89.50
2017-08-28T07:05:05.121Z,89.50
2017-08-28T07:07:32.704Z,90.10
2017-08-28T07:10:00.346Z,89.30
2017-08-28T07:12:27.926Z,90.00
2017-08-28T07:14:55.494Z,90.20
2017-08-28T07:17:23.102Z,90.40
2017-08-28T07:19:50.675Z,90.40
2017-08-28T07:22:18.253Z,90.30
2017-08-28T07:24:45.897Z,90.40
2017-08-28T07:27:13.466Z,90.60
2017-08-28T07:29:41.055Z,90.60
2017-08-28T07:32:08.843Z,90.60
2017-08-28T07:34:36.443Z,90.40
2017-08-28T07:37:04.019Z,90.40
2017-08-28T07:39:31.632Z,90.60
2017-08-28T07:41:59.218Z,90.60
2017-08-28T07:44:26.826Z,90.80
2017-08-28T07:46:54.453Z,90.60
2017-08-28T07:49:22.210Z,90.50
2017-08-28T07:51:49.785Z,90.70
2017-08-28T07:54:17.706Z,90.80
2017-08-28T07:56:45.568Z,91.00
2017-08-28T07:59:13.150Z,91.10
2017-08-28T08:01:40.779Z,91.30
2017-08-28T08:04:08.362Z,91.30
2017-08-28T08:06:36.321Z,91.20
2017-08-28T08:09:04.234Z,91.50
2017-08-28T08:11:31.816Z,91.70
2017-08-28T08:13:59.606Z,91.90
2017-08-28T08:16:27.206Z,92.00
2017-08-28T08:18:54.903Z,92.10
2017-08-28T08:21:23.432Z,92.30
2017-08-28T08:23:52.334Z,92.40
2017-08-28T08:26:20.270Z,92.40
2017-08-28T08:28:47.878Z,92.20
2017-08-28T08:31:15.906Z,92.10
2017-08-28T08:33:49.103Z,92.70
2017-08-28T08:36:16.714Z,93.00
2017-08-28T08:38:44.315Z,93.20
2017-08-28T08:41:11.902Z,93.50
2017-08-28T08:43:39.499Z,93.60
2017-08-28T08:46:07.123Z,93.40
2017-08-28T08:48:34.697Z,93.20
2017-08-28T08:51:02.290Z,93.50
2017-08-28T08:53:29.945Z,93.90
2017-08-28T08:55:57.522Z,94.10
2017-08-28T08:58:25.167Z,93.90
2017-08-28T09:00:52.775Z,93.60
2017-08-28T09:03:26.017Z,93.60
2017-08-28T09:05:53.638Z,93.50
2017-08-28T09:08:21.212Z,93.50
2017-08-28T09:10:48.817Z,93.60
2017-08-28T09:13:16.434Z,93.80
2017-08-28T09:15:44.006Z,94.00
2017-08-28T09:18:11.601Z,94.10
2017-08-28T09:20:39.366Z,93.90
2017-08-28T09:23:06.929Z,93.80
2017-08-28T09:25:34.499Z,93.80
2017-08-28T09:28:02.099Z,94.10
2017-08-28T09:30:29.663Z,94.20
2017-08-28T09:32:57.225Z,94.30
2017-08-28T09:35:24.859Z,94.30
2017-08-28T09:37:52.766Z,94.40
2017-08-28T09:40:20.346Z,94.00
2017-08-28T09:42:47.959Z,94.00
2017-08-28T09:45:15.529Z,94.30
2017-08-28T09:47:43.114Z,94.40
2017-08-28T09:50:10.740Z,94.60
2017-08-28T09:52:38.307Z,94.60
2017-08-28T09:55:05.889Z,94.40
2017-08-28T09:57:33.507Z,94.40
2017-08-28T10:00:01.079Z,94.40
2017-08-28T10:02:28.653Z,94.50
2017-08-28T10:04:56.336Z,94.50
2017-08-28T10:07:23.979Z,94.50
2017-08-28T10:09:51.570Z,94.60
2017-08-28T10:12:19.192Z,94.50
2017-08-28T10:14:46.764Z,94.30
2017-08-28T10:17:14.337Z,94.30
2017-08-28T10:19:41.946Z,94.30
2017-08-28T10:22:09.508Z,94.20
2017-08-28T10:24:37.073Z,94.00
2017-08-28T10:27:09.174Z,94.10
2017-08-28T10:29:55.914Z,93.20
2017-08-28T10:32:24.822Z,91.30
2017-08-28T10:35:10.201Z,83.50
2017-08-28T10:37:38.964Z,75.40
2017-08-28T10:40:06.697Z,68.80
2017-08-28T10:42:34.291Z,63.60
2017-08-28T10:45:01.890Z,60.60
2017-08-28T10:47:29.472Z,57.60
2017-08-28T10:49:57.049Z,54.70
2017-08-28T10:52:24.679Z,54.30
2017-08-28T10:54:52.350Z,52.20
2017-08-28T10:57:20.052Z,50.80
2017-08-28T10:59:47.973Z,49.50
2017-08-28T11:02:15.652Z,48.60
2017-08-28T11:04:43.252Z,48.90
2017-08-28T11:07:10.892Z,48.60
2017-08-28T11:09:38.463Z,49.70
2017-08-28T11:12:06.049Z,49.10
2017-08-28T11:14:33.693Z,49.30
2017-08-28T11:17:01.272Z,50.20
2017-08-28T11:19:28.853Z,51.90
2017-08-28T11:21:56.498Z,52.00
2017-08-28T11:24:24.370Z,50.40
2017-08-28T11:26:51.975Z,49.70
2017-08-28T11:29:19.956Z,49.30
2017-08-28T11:31:47.563Z,48.70
2017-08-28T11:34:15.134Z,48.30
2017-08-28T11:36:42.762Z,47.80
2017-08-28T11:39:10.359Z,47.50
2017-08-28T11:41:37.934Z,47.50
2017-08-28T11:44:05.833Z,47.10
2017-08-28T11:46:33.396Z,46.30
2017-08-28T11:49:00.962Z,47.10
2017-08-28T11:51:28.604Z,46.30
2017-08-28T11:53:56.181Z,45.80
2017-08-28T11:56:23.768Z,45.90
2017-08-28T11:58:51.537Z,47.10
2017-08-28T12:01:19.109Z,48.30
2017-08-28T12:03:46.678Z,46.90
2017-08-28T12:06:14.310Z,47.60
2017-08-28T12:08:41.881Z,48.00
2017-08-28T12:11:09.456Z,47.00
2017-08-28T12:13:37.062Z,46.30
2017-08-28T12:16:04.854Z,45.70
2017-08-28T12:18:32.459Z,46.20
2017-08-28T12:21:00.182Z,45.50
2017-08-28T12:23:27.765Z,44.60
2017-08-28T12:25:55.345Z,44.30
2017-08-28T12:28:23.244Z,44.80
2017-08-28T12:30:50.812Z,44.30
2017-08-28T12:33:18.407Z,44.00
2017-08-28T12:35:46.018Z,43.30
2017-08-28T12:38:13.612Z,43.00
2017-08-28T12:40:41.219Z,44.10
2017-08-28T12:43:08.839Z,44.20
2017-08-28T12:45:36.411Z,43.90
2017-08-28T12:48:03.993Z,43.30
2017-08-28T12:50:31.768Z,42.50
2017-08-28T12:52:59.346Z,43.00
2017-08-28T12:55:26.934Z,42.60
2017-08-28T12:57:54.527Z,43.70
2017-08-28T13:00:22.091Z,42.60
2017-08-28T13:02:49.682Z,41.00
2017-08-28T13:05:17.279Z,41.60
2017-08-28T13:07:44.873Z,41.60
2017-08-28T13:10:12.450Z,41.90
2017-08-28T13:12:41.457Z,40.80
2017-08-28T13:15:18.396Z,40.80
2017-08-28T13:17:56.244Z,41.40
2017-08-28T13:20:38.010Z,42.00
2017-08-28T13:23:21.776Z,42.90
2017-08-28T13:26:12.375Z,43.50
2017-08-28T13:34:48.255Z,43.10
2017-08-28T13:40:38.200Z,44.90
2017-08-28T13:43:15.538Z,45.00
2017-08-28T13:45:51.549Z,45.50
2017-08-28T13:51:24.033Z,44.60
2017-08-28T13:53:55.744Z,44.50
2017-08-28T13:59:34.939Z,44.70
2017-08-28T14:02:22.913Z,45.20
2017-08-28T14:04:51.448Z,45.40
2017-08-28T14:07:43.005Z,45.00
2017-08-28T14:10:20.589Z,45.20
2017-08-28T14:12:52.054Z,45.70
2017-08-28T14:18:28.499Z,45.60
2017-08-28T14:20:57.966Z,45.70
2017-08-28T14:23:25.573Z,46.30
2017-08-28T14:25:53.157Z,47.60
2017-08-28T14:28:20.729Z,45.90
2017-08-28T14:30:48.327Z,47.30
2017-08-28T14:33:15.916Z,47.20
2017-08-28T14:35:43.778Z,48.10
2017-08-28T14:38:11.363Z,49.30
2017-08-28T14:40:38.935Z,50.20
2017-08-28T14:43:06.526Z,50.70
2017-08-28T14:45:34.117Z,50.00
2017-08-28T14:48:01.945Z,50.20
2017-08-28T14:50:29.537Z,49.70
2017-08-28T14:52:57.102Z,49.90
2017-08-28T14:55:24.699Z,49.80
2017-08-28T14:57:52.270Z,49.90
2017-08-28T15:00:20.127Z,50.50
2017-08-28T15:02:47.683Z,50.40
2017-08-28T15:05:15.259Z,50.90
2017-08-28T15:07:42.854Z,51.40
2017-08-28T15:10:10.436Z,51.70
2017-08-28T15:12:38.243Z,52.90
2017-08-28T15:15:05.820Z,53.00
2017-08-28T15:17:33.445Z,52.40
2017-08-28T15:20:01.042Z,52.00
2017-08-28T15:22:28.622Z,51.10
2017-08-28T15:24:56.406Z,51.50
2017-08-28T15:27:23.992Z,51.20
2017-08-28T15:29:51.560Z,49.60
2017-08-28T15:32:19.146Z,50.20
2017-08-28T15:34:46.719Z,50.10
2017-08-28T15:37:14.437Z,49.60
2017-08-28T15:39:42.013Z,49.70
2017-08-28T15:42:09.607Z,50.20
2017-08-28T15:44:37.216Z,49.90
2017-08-28T15:47:04.825Z,50.60
2017-08-28T15:49:32.576Z,49.40
2017-08-28T15:52:00.176Z,49.00
2017-08-28T15:54:27.737Z,49.40
2017-08-28T15:56:55.323Z,50.00
2017-08-28T15:59:22.923Z,49.60
2017-08-28T16:01:50.751Z,49.30
2017-08-28T16:04:18.315Z,49.00
2017-08-28T16:06:45.875Z,49.10
2017-08-28T16:09:13.607Z,49.30
2017-08-28T16:11:41.189Z,49.50
2017-08-28T16:14:12.755Z,49.60
2017-08-28T16:16:40.322Z,49.60
2017-08-28T16:19:07.894Z,50.20
2017-08-28T16:21:35.479Z,52.30
2017-08-28T16:24:03.051Z,51.30
2017-08-28T16:26:30.848Z,52.10
2017-08-28T16:28:58.439Z,53.40
2017-08-28T16:31:26.021Z,51.80
2017-08-28T16:33:53.622Z,51.50
2017-08-28T16:36:21.206Z,50.90
2017-08-28T16:38:49.851Z,50.00
2017-08-28T16:41:17.426Z,49.90
2017-08-28T16:43:45.170Z,50.90
2017-08-28T16:46:12.756Z,53.00
2017-08-28T16:48:40.339Z,53.60
2017-08-28T16:51:07.998Z,53.30
2017-08-28T16:53:35.938Z,53.10
2017-08-28T16:56:03.570Z,54.80
2017-08-28T16:58:31.478Z,54.60
2017-08-28T17:00:59.150Z,54.10
2017-08-28T17:03:26.775Z,53.70
2017-08-28T17:05:54.403Z,52.40
2017-08-28T17:08:21.992Z,53.20
2017-08-28T17:10:49.587Z,51.80
2017-08-28T17:13:17.410Z,54.40
2017-08-28T17:15:45.160Z,54.90
2017-08-28T17:18:12.794Z,54.50
2017-08-28T17:20:40.446Z,54.90
2017-08-28T17:23:08.057Z,55.80
2017-08-28T17:25:35.768Z,55.20
2017-08-28T17:28:03.875Z,55.00
2017-08-28T17:30:31.499Z,54.20
2017-08-28T17:32:59.222Z,54.10
2017-08-28T17:35:26.855Z,54.10
2017-08-28T17:37:54.554Z,54.40
2017-08-28T17:40:22.202Z,55.50
2017-08-28T17:42:49.800Z,56.20
2017-08-28T17:45:17.591Z,55.90
2017-08-28T17:47:45.162Z,57.00
2017-08-28T17:50:12.740Z,57.40
2017-08-28T17:52:40.382Z,58.00
2017-08-28T17:55:07.981Z,58.60
2017-08-28T17:57:35.742Z,59.20
2017-08-28T18:00:03.342Z,59.70
2017-08-28T18:02:30.966Z,60.70
2017-08-28T18:04:58.573Z,61.60
2017-08-28T18:07:26.195Z,62.90
2017-08-28T18:09:54.286Z,63.30
2017-08-28T18:12:21.875Z,64.90
2017-08-28T18:14:49.546Z,65.20
2017-08-28T18:17:17.180Z,65.50
2017-08-28T18:19:44.809Z,66.50
2017-08-28T18:22:12.679Z,67.60
2017-08-28T18:24:44.435Z,68.20
2017-08-28T18:27:12.927Z,69.50
2017-08-28T18:29:40.706Z,69.50
2017-08-28T18:32:08.327Z,70.10
2017-08-28T18:34:35.997Z,70.60
2017-08-28T18:37:03.688Z,71.20
2017-08-28T18:39:31.760Z,71.50
2017-08-28T18:41:59.349Z,72.40
2017-08-28T18:44:26.957Z,73.40
2017-08-28T18:46:54.577Z,73.50
2017-08-28T18:49:22.217Z,73.50
2017-08-28T18:51:49.846Z,73.20
2017-08-28T18:54:17.439Z,73.10
2017-08-28T18:56:45.023Z,73.50
2017-08-28T18:59:12.643Z,74.60
2017-08-28T19:01:41.099Z,75.70
2017-08-28T19:04:09.633Z,76.50
2017-08-28T19:06:37.210Z,76.50
2017-08-28T19:09:04.845Z,76.80
2017-08-28T19:11:32.506Z,77.10
2017-08-28T19:14:00.231Z,77.50
2017-08-28T19:16:28.062Z,78.40
2017-08-28T19:18:56.524Z,79.40
2017-08-28T19:21:24.263Z,79.50
2017-08-28T19:23:51.867Z,79.70
2017-08-28T19:26:19.459Z,79.70
2017-08-28T19:28:47.196Z,80.30
2017-08-28T19:31:14.813Z,80.60
2017-08-28T19:33:52.671Z,80.70
2017-08-28T19:49:55.282Z,59.40
2017-08-28T20:09:06.519Z,51.50
2017-08-28T20:11:34.274Z,53.60
2017-08-28T20:14:02.008Z,57.80
2017-08-28T20:16:29.949Z,60.80
2017-08-28T20:18:57.634Z,64.90
2017-08-28T20:21:25.426Z,68.40
2017-08-28T20:23:53.079Z,72.00
2017-08-28T20:26:20.762Z,74.50
2017-08-28T20:28:48.466Z,76.10
2017-08-28T20:31:16.375Z,77.10
2017-08-28T20:33:44.147Z,77.90
2017-08-28T20:36:11.819Z,78.70
2017-08-28T20:38:39.537Z,79.40
2017-08-28T20:41:07.210Z,80.40
2017-08-28T20:43:34.938Z,81.30
2017-08-28T20:46:02.764Z,82.20
2017-08-28T20:48:30.430Z,83.00
2017-08-28T20:50:58.227Z,83.40
2017-08-28T20:53:26.166Z,83.80
2017-08-28T20:55:53.863Z,84.40
2017-08-28T20:58:21.914Z,84.80
2017-08-28T21:00:49.582Z,85.10
2017-08-28T21:03:17.238Z,85.60
2017-08-28T21:05:45.357Z,85.80
2017-08-28T21:08:13.037Z,86.30
2017-08-28T21:10:41.584Z,86.60
2017-08-28T21:13:09.290Z,86.50
2017-08-28T21:15:36.954Z,86.40
2017-08-28T21:18:04.634Z,86.30
2017-08-28T21:20:32.333Z,86.20
2017-08-28T21:23:00.507Z,86.60
2017-08-28T21:25:28.172Z,86.80
2017-08-28T21:27:55.835Z,87.40
2017-08-28T21:30:23.512Z,87.60
2017-08-28T21:32:51.199Z,87.60
2017-08-28T21:35:19.168Z,87.70
2017-08-28T21:37:46.830Z,88.30
2017-08-28T21:40:14.507Z,88.50
2017-08-28T21:42:42.341Z,88.40
2017-08-28T21:45:10.005Z,88.40
2017-08-28T21:47:37.870Z,88.30
2017-08-28T21:50:05.554Z,88.30
2017-08-28T21:52:33.250Z,88.20
2017-08-28T21:55:01.015Z,88.20
2017-08-28T21:57:28.719Z,88.60
2017-08-28T21:59:56.722Z,89.20
2017-08-28T22:02:24.377Z,89.60
2017-08-28T22:04:56.876Z,89.90
2017-08-28T22:07:24.894Z,89.70
2017-08-28T22:09:52.562Z,89.60
2017-08-28T22:12:20.426Z,89.10
2017-08-28T22:14:48.070Z,88.30
2017-08-28T22:17:15.726Z,87.90
2017-08-28T22:19:43.409Z,89.40
2017-08-28T22:22:11.068Z,90.00
2017-08-28T22:24:40.658Z,90.00
2017-08-28T22:27:08.338Z,89.90
2017-08-28T22:29:36.087Z,90.20
2017-08-28T22:32:03.783Z,90.40
2017-08-28T22:34:31.437Z,90.70
2017-08-28T22:36:59.321Z,90.80
2017-08-28T22:39:27.745Z,90.70
2017-08-28T22:41:55.391Z,90.80
2017-08-28T22:44:23.523Z,90.90
2017-08-28T22:46:51.173Z,90.80
2017-08-28T22:49:19.217Z,90.60
2017-08-28T22:51:46.879Z,90.40
2017-08-28T22:54:15.517Z,90.10
2017-08-28T22:56:43.328Z,90.10
2017-08-28T22:59:11.040Z,90.40
2017-08-28T23:01:38.734Z,90.30
2017-08-28T23:04:06.388Z,90.10
2017-08-28T23:06:34.820Z,90.40
2017-08-28T23:09:02.854Z,90.40
2017-08-28T23:11:30.638Z,90.70
2017-08-28T23:13:58.362Z,91.00
2017-08-28T23:16:26.041Z,90.90
2017-08-28T23:18:53.727Z,90.80
2017-08-28T23:21:21.579Z,90.80
2017-08-28T23:23:49.239Z,90.90
2017-08-28T23:26:17.079Z,90.70
2017-08-28T23:28:44.813Z,90.50
2017-08-28T23:31:12.547Z,90.30
2017-08-28T23:33:40.243Z,90.20
2017-08-28T23:36:07.934Z,90.00
2017-08-28T23:38:35.770Z,89.60
2017-08-28T23:41:03.435Z,89.60
2017-08-28T23:43:31.125Z,90.70
2017-08-28T23:45:58.948Z,90.60
2017-08-28T23:48:26.680Z,90.70
2017-08-28T23:50:54.636Z,91.00
2017-08-28T23:53:22.315Z,91.10
2017-08-28T23:55:49.984Z,91.00
2017-08-28T23:58:17.676Z,90.70
